createdAt,value
2023-04-06T00:00:16.884Z,3.13
2023-04-06T00:02:44.187Z,3.40
2023-04-06T00:05:11.255Z,3.05
2023-04-06T00:07:38.202Z,3.45
2023-04-06T00:10:05.789Z,2.80
2023-04-06T00:12:32.585Z,3.40
2023-04-06T00:14:59.450Z,2.63
2023-04-06T00:17:26.367Z,3.05
2023-04-06T00:19:53.400Z,2.50
2023-04-06T00:22:20.199Z,2.80
2023-04-06T00:24:46.998Z,3.25
2023-04-06T00:27:13.941Z,2.85
2023-04-06T00:29:41.232Z,3.20
2023-04-06T00:32:08.073Z,2.70
2023-04-06T00:34:34.990Z,3.40
2023-04-06T00:37:01.802Z,2.70
2023-04-06T00:39:28.631Z,2.55
2023-04-06T00:41:56.244Z,2.63
2023-04-06T00:44:23.040Z,2.97
2023-04-06T00:46:50.023Z,2.70
2023-04-06T00:49:16.803Z,3.33
2023-04-06T00:51:44.447Z,2.75
2023-04-06T00:54:12.040Z,2.92
2023-04-06T00:56:38.952Z,2.90
2023-04-06T00:59:06.397Z,2.47
2023-04-06T01:01:33.658Z,2.90
2023-04-06T01:04:00.685Z,3.47
2023-04-06T01:06:31.529Z,2.47
2023-04-06T01:08:58.424Z,2.38
2023-04-06T01:11:25.300Z,2.55
2023-04-06T01:13:52.149Z,2.67
2023-04-06T01:16:19.204Z,2.50
2023-04-06T01:18:46.127Z,2.50
2023-04-06T01:21:18.425Z,2.53
2023-04-06T01:26:14.321Z,2.47
2023-04-06T01:28:41.302Z,2.35
2023-04-06T01:31:10.118Z,3.03
2023-04-06T01:33:37.159Z,2.50
2023-04-06T01:36:05.115Z,2.22
2023-04-06T01:38:31.975Z,2.53
2023-04-06T01:40:58.857Z,1.90
2023-04-06T01:43:25.634Z,2.53
2023-04-06T01:45:52.519Z,2.80
2023-04-06T01:48:20.148Z,2.47
2023-04-06T01:50:47.182Z,2.30
2023-04-06T01:53:14.144Z,2.70
2023-04-06T01:55:41.000Z,2.53
2023-04-06T01:58:07.780Z,2.85
2023-04-06T02:00:34.638Z,3.03
2023-04-06T02:03:01.776Z,2.92
2023-04-06T02:05:30.434Z,2.90
2023-04-06T02:07:57.674Z,2.30
2023-04-06T02:10:25.662Z,2.40
2023-04-06T02:12:52.664Z,3.30
2023-04-06T02:15:19.450Z,2.70
2023-04-06T02:17:46.429Z,2.47
2023-04-06T02:20:13.713Z,4.00
2023-04-06T02:22:41.377Z,2.53
2023-04-06T02:25:08.809Z,3.08
2023-04-06T02:27:36.531Z,2.78
2023-04-06T02:30:06.992Z,2.30
2023-04-06T02:32:33.800Z,2.83
2023-04-06T02:35:01.292Z,2.80
2023-04-06T02:37:28.226Z,2.92
2023-04-06T02:39:55.091Z,2.72
2023-04-06T02:42:22.053Z,2.90
2023-04-06T02:44:48.890Z,2.65
2023-04-06T02:47:15.978Z,3.05
2023-04-06T02:49:42.739Z,3.42
2023-04-06T02:52:09.528Z,3.08
2023-04-06T02:54:36.592Z,2.45
2023-04-06T02:57:03.520Z,2.95
2023-04-06T02:59:30.877Z,2.95
2023-04-06T03:01:57.706Z,3.50
2023-04-06T03:04:26.457Z,2.90
2023-04-06T03:06:54.976Z,2.78
2023-04-06T03:09:22.040Z,2.90
2023-04-06T03:11:48.857Z,3.03
2023-04-06T03:14:15.800Z,2.60
2023-04-06T03:16:42.668Z,3.08
2023-04-06T03:19:16.157Z,2.83
2023-04-06T03:21:43.595Z,2.90
2023-04-06T03:24:10.594Z,2.88
2023-04-06T03:26:37.411Z,3.22
2023-04-06T03:29:04.272Z,2.72
2023-04-06T03:31:31.279Z,2.97
2023-04-06T03:33:58.454Z,2.58
2023-04-06T03:36:26.386Z,2.70
2023-04-06T03:38:54.598Z,3.20
2023-04-06T03:41:21.957Z,3.42
2023-04-06T03:43:48.815Z,3.22
2023-04-06T03:46:16.838Z,3.92
2023-04-06T03:48:43.767Z,3.90
2023-04-06T03:51:10.645Z,3.13
2023-04-06T03:53:38.157Z,3.33
2023-04-06T03:56:05.624Z,3.35
2023-04-06T03:58:32.695Z,3.85
2023-04-06T04:00:59.639Z,3.58
2023-04-06T04:03:28.592Z,2.97
2023-04-06T04:05:58.927Z,2.92
2023-04-06T04:08:26.215Z,3.35
2023-04-06T04:10:53.117Z,2.88
2023-04-06T04:13:20.465Z,6.10
2023-04-06T04:15:48.654Z,6.60
2023-04-06T04:18:15.871Z,3.88
2023-04-06T04:20:42.756Z,3.28
2023-04-06T04:23:09.642Z,3.50
2023-04-06T04:25:36.518Z,3.28
2023-04-06T04:28:03.826Z,2.95
2023-04-06T04:30:30.775Z,4.00
2023-04-06T04:32:57.751Z,3.70
2023-04-06T04:35:24.912Z,3.55
2023-04-06T04:37:51.909Z,3.05
2023-04-06T04:40:18.757Z,3.13
2023-04-06T04:42:46.581Z,3.03
2023-04-06T04:45:14.012Z,3.17
2023-04-06T04:47:40.986Z,3.22
2023-04-06T04:50:08.560Z,3.97
2023-04-06T04:52:35.615Z,3.60
2023-04-06T04:55:06.213Z,3.17
2023-04-06T04:57:33.108Z,3.40
2023-04-06T05:00:00.131Z,3.50
2023-04-06T05:02:27.510Z,3.03
2023-04-06T05:04:54.400Z,3.42
2023-04-06T05:07:21.961Z,4.00
2023-04-06T05:09:49.073Z,3.40
2023-04-06T05:12:16.158Z,4.82
2023-04-06T05:14:45.436Z,3.63
2023-04-06T05:17:12.806Z,3.55
2023-04-06T05:19:39.673Z,4.07
2023-04-06T05:22:06.587Z,4.10
2023-04-06T05:24:34.404Z,5.95
2023-04-06T05:27:07.646Z,4.85
2023-04-06T05:29:34.907Z,4.18
2023-04-06T05:32:02.927Z,4.60
2023-04-06T05:34:29.902Z,3.65
2023-04-06T05:36:57.013Z,3.30
2023-04-06T05:39:23.979Z,4.00
2023-04-06T05:41:51.244Z,3.10
2023-04-06T05:44:18.170Z,3.67
2023-04-06T05:46:45.481Z,3.58
2023-04-06T05:49:12.557Z,4.20
2023-04-06T05:51:39.625Z,4.00
2023-04-06T05:54:06.540Z,4.00
2023-04-06T05:56:33.420Z,4.35
2023-04-06T05:59:00.650Z,3.70
2023-04-06T06:01:27.468Z,4.10
2023-04-06T06:03:55.169Z,3.72
2023-04-06T06:06:27.182Z,4.57
2023-04-06T06:08:54.058Z,5.60
2023-04-06T06:11:21.061Z,7.97
2023-04-06T06:13:48.250Z,9.07
2023-04-06T06:16:15.134Z,7.10
2023-04-06T06:18:42.327Z,5.07
2023-04-06T06:21:09.337Z,4.28
2023-04-06T06:23:36.433Z,4.00
2023-04-06T06:26:03.357Z,4.07
2023-04-06T06:28:30.438Z,4.32
2023-04-06T06:30:57.566Z,4.10
2023-04-06T06:33:24.504Z,3.92
2023-04-06T06:35:52.358Z,3.70
2023-04-06T06:38:23.791Z,4.63
2023-04-06T06:40:51.196Z,3.90
2023-04-06T06:43:18.128Z,4.20
2023-04-06T06:45:45.550Z,4.22
2023-04-06T06:48:13.967Z,4.32
2023-04-06T06:50:41.076Z,4.35
2023-04-06T06:53:07.993Z,4.22
2023-04-06T06:55:34.963Z,4.20
2023-04-06T06:58:01.820Z,4.13
2023-04-06T07:00:28.698Z,4.13
2023-04-06T07:02:56.040Z,4.07
2023-04-06T07:05:27.750Z,4.05
2023-04-06T07:07:57.050Z,4.82
2023-04-06T07:10:24.197Z,5.63
2023-04-06T07:12:51.136Z,5.38
2023-04-06T07:15:18.497Z,4.75
2023-04-06T07:17:48.213Z,5.13
2023-04-06T07:20:16.067Z,4.50
2023-04-06T07:22:45.604Z,5.00
2023-04-06T07:25:16.163Z,9.35
2023-04-06T07:27:45.659Z,4.93
2023-04-06T07:30:12.854Z,4.97
2023-04-06T07:32:40.910Z,4.70
2023-04-06T07:35:08.064Z,4.45
2023-04-06T07:37:34.880Z,5.50
2023-04-06T07:40:01.773Z,4.70
2023-04-06T07:42:28.767Z,5.90
2023-04-06T07:44:55.797Z,5.07
2023-04-06T07:47:22.807Z,4.97
2023-04-06T07:49:49.679Z,4.53
2023-04-06T07:52:17.216Z,4.30
2023-04-06T07:54:44.090Z,4.80
2023-04-06T07:57:11.272Z,4.95
2023-04-06T07:59:38.200Z,4.55
2023-04-06T08:02:05.264Z,4.18
2023-04-06T08:04:32.273Z,4.20
2023-04-06T08:06:59.257Z,4.28
2023-04-06T08:09:27.680Z,4.07
2023-04-06T08:11:54.881Z,4.70
2023-04-06T08:14:22.109Z,4.40
2023-04-06T08:16:49.214Z,4.75
2023-04-06T08:19:18.356Z,4.22
2023-04-06T08:21:46.294Z,5.10
2023-04-06T08:24:13.758Z,4.50
2023-04-06T08:26:40.925Z,4.03
2023-04-06T08:29:10.626Z,4.68
2023-04-06T08:31:38.600Z,26.85
2023-04-06T08:34:07.009Z,5.70
2023-04-06T08:36:34.450Z,4.30
2023-04-06T08:39:02.191Z,4.78
2023-04-06T08:41:29.710Z,17.52
2023-04-06T08:44:03.763Z,9.68
2023-04-06T08:46:31.962Z,7.55
2023-04-06T08:49:00.261Z,5.80
2023-04-06T08:51:28.142Z,5.10
2023-04-06T08:53:56.378Z,5.50
2023-04-06T08:56:24.756Z,5.93
2023-04-06T08:58:55.813Z,36.28
2023-04-06T09:01:26.558Z,7.47
2023-04-06T09:03:58.786Z,5.75
2023-04-06T09:06:30.086Z,4.43
2023-04-06T09:08:57.660Z,4.25
2023-04-06T09:11:24.509Z,5.30
2023-04-06T09:13:54.063Z,4.90
2023-04-06T09:16:21.862Z,4.90
2023-04-06T09:18:50.386Z,6.60
2023-04-06T09:21:24.475Z,5.57
2023-04-06T09:24:03.904Z,5.20
2023-04-06T09:26:31.623Z,5.10
2023-04-06T09:31:35.543Z,4.90
2023-04-06T09:34:02.829Z,4.68
2023-04-06T09:36:34.447Z,6.35
2023-04-06T09:39:03.497Z,4.30
2023-04-06T09:41:37.134Z,4.85
2023-04-06T09:44:07.966Z,4.45
2023-04-06T09:46:55.000Z,4.65
2023-04-06T09:49:31.709Z,4.82
2023-04-06T09:52:03.411Z,4.85
2023-04-06T09:54:32.477Z,5.32
2023-04-06T09:57:06.228Z,5.10
2023-04-06T09:59:43.935Z,5.20
2023-04-06T10:02:40.872Z,5.15
2023-04-06T10:05:17.466Z,5.60
2023-04-06T10:07:57.208Z,4.80
2023-04-06T10:10:26.974Z,4.80
2023-04-06T10:12:54.845Z,5.53
2023-04-06T10:15:23.054Z,5.13
2023-04-06T10:17:50.413Z,5.00
2023-04-06T10:20:32.932Z,5.22
2023-04-06T10:23:30.545Z,5.80
2023-04-06T10:26:03.760Z,6.20
2023-04-06T10:28:37.121Z,6.13
2023-04-06T10:31:07.026Z,6.32
2023-04-06T10:33:34.456Z,6.60
2023-04-06T10:36:24.016Z,6.50
2023-04-06T10:38:58.651Z,6.57
2023-04-06T10:41:51.631Z,6.65
2023-04-06T10:44:23.040Z,7.20
2023-04-06T10:46:57.852Z,8.20
2023-04-06T10:49:27.496Z,7.30
2023-04-06T10:51:59.773Z,7.40
2023-04-06T10:54:28.030Z,7.35
2023-04-06T10:56:54.923Z,8.13
2023-04-06T10:59:23.106Z,8.20
2023-04-06T11:01:50.770Z,7.75
2023-04-06T11:04:22.061Z,9.18
2023-04-06T11:06:50.907Z,7.97
2023-04-06T11:09:28.728Z,7.90
2023-04-06T11:11:56.339Z,8.45
2023-04-06T11:14:24.030Z,7.45
2023-04-06T11:16:51.477Z,8.40
2023-04-06T11:19:18.887Z,8.20
2023-04-06T11:21:50.236Z,9.00
2023-04-06T11:24:25.389Z,9.00
2023-04-06T11:27:01.551Z,7.90
2023-04-06T11:29:31.910Z,8.50
2023-04-06T11:32:08.965Z,8.68
2023-04-06T11:34:39.408Z,8.45
2023-04-06T11:37:11.095Z,8.88
2023-04-06T11:39:44.629Z,8.90
2023-04-06T11:42:11.648Z,8.40
2023-04-06T11:47:33.318Z,9.13
2023-04-06T11:50:11.135Z,8.40
2023-04-06T11:52:39.731Z,8.32
2023-04-06T11:55:13.645Z,8.75
2023-04-06T11:57:40.857Z,9.23
2023-04-06T12:00:10.397Z,8.80
2023-04-06T12:02:40.606Z,8.85
2023-04-06T12:05:09.717Z,8.80
2023-04-06T12:07:37.261Z,8.10
2023-04-06T12:10:05.334Z,8.52
2023-04-06T12:12:32.399Z,9.63
2023-04-06T12:15:00.074Z,9.82
2023-04-06T12:17:27.126Z,9.48
2023-04-06T12:19:54.171Z,9.05
2023-04-06T12:22:20.976Z,8.02
2023-04-06T12:24:48.543Z,8.77
2023-04-06T12:27:15.595Z,8.95
2023-04-06T12:29:43.631Z,9.38
2023-04-06T12:32:10.862Z,9.20
2023-04-06T12:34:39.255Z,9.25
2023-04-06T12:37:06.152Z,8.98
2023-04-06T12:39:33.022Z,9.60
2023-04-06T12:42:00.378Z,10.55
2023-04-06T12:44:27.299Z,9.93
2023-04-06T12:46:54.364Z,10.70
2023-04-06T12:49:21.325Z,10.18
2023-04-06T12:51:48.259Z,30.60
2023-04-06T12:54:17.805Z,30.75
2023-04-06T12:56:44.744Z,13.32
2023-04-06T12:59:12.554Z,11.60
2023-04-06T13:01:40.738Z,10.57
2023-04-06T13:04:07.886Z,12.05
2023-04-06T13:06:34.874Z,10.98
2023-04-06T13:09:02.018Z,10.25
2023-04-06T13:11:37.892Z,11.35
2023-04-06T13:14:04.985Z,11.90
2023-04-06T13:16:34.097Z,10.57
2023-04-06T13:19:02.539Z,17.65
2023-04-06T13:21:29.724Z,10.70
2023-04-06T13:23:56.591Z,10.43
2023-04-06T13:26:23.456Z,9.90
2023-04-06T13:28:50.950Z,9.52
2023-04-06T13:31:18.086Z,12.10
2023-04-06T13:33:47.555Z,9.75
2023-04-06T13:36:17.368Z,11.10
2023-04-06T13:38:45.237Z,10.20
2023-04-06T13:41:22.003Z,9.32
2023-04-06T13:43:49.189Z,9.20
2023-04-06T13:46:16.504Z,9.60
2023-04-06T13:48:44.361Z,11.68
2023-04-06T13:51:12.703Z,10.07
2023-04-06T13:53:41.619Z,9.73
2023-04-06T13:56:09.264Z,11.27
2023-04-06T13:58:37.150Z,9.88
2023-04-06T14:01:10.496Z,9.80
2023-04-06T14:03:38.100Z,9.35
2023-04-06T14:08:44.434Z,9.45
2023-04-06T14:11:15.224Z,9.30
2023-04-06T14:13:42.947Z,9.10
2023-04-06T14:16:10.234Z,8.85
2023-04-06T14:18:38.422Z,9.52
2023-04-06T14:21:05.493Z,9.25
2023-04-06T14:23:34.010Z,9.85
2023-04-06T14:26:09.313Z,49.10
2023-04-06T14:28:37.411Z,9.65
2023-04-06T14:31:12.868Z,9.77
2023-04-06T14:33:40.439Z,8.98
2023-04-06T14:36:08.406Z,10.75
2023-04-06T14:38:35.728Z,10.65
2023-04-06T14:41:02.821Z,10.18
2023-04-06T14:43:32.103Z,10.73
2023-04-06T14:46:02.745Z,8.93
2023-04-06T14:48:29.886Z,8.45
2023-04-06T14:50:57.785Z,8.98
2023-04-06T14:53:25.491Z,12.38
2023-04-06T14:55:52.529Z,8.45
2023-04-06T14:58:23.224Z,8.18
2023-04-06T15:00:51.256Z,8.35
2023-04-06T15:03:18.420Z,9.52
2023-04-06T15:05:45.932Z,8.77
2023-04-06T15:08:14.845Z,9.13
2023-04-06T15:10:41.714Z,8.90
2023-04-06T15:13:08.494Z,8.60
2023-04-06T15:15:35.383Z,8.65
2023-04-06T15:18:03.552Z,9.85
2023-04-06T15:20:30.797Z,8.93
2023-04-06T15:22:57.933Z,9.05
2023-04-06T15:25:24.997Z,9.52
2023-04-06T15:27:52.342Z,9.02
2023-04-06T15:30:19.258Z,10.23
2023-04-06T15:33:01.749Z,10.02
2023-04-06T15:35:31.868Z,9.85
2023-04-06T15:37:58.833Z,9.68
2023-04-06T15:40:26.165Z,9.57
2023-04-06T15:42:53.125Z,12.25
2023-04-06T15:45:19.924Z,11.65
2023-04-06T15:47:46.900Z,9.95
2023-04-06T15:50:15.579Z,9.10
2023-04-06T15:52:42.419Z,9.30
2023-04-06T15:55:10.804Z,10.57
2023-04-06T15:57:37.686Z,11.48
2023-04-06T16:00:05.097Z,10.10
2023-04-06T16:02:32.350Z,10.32
2023-04-06T16:05:02.810Z,9.43
2023-04-06T16:07:34.357Z,9.25
2023-04-06T16:10:01.584Z,10.57
2023-04-06T16:12:32.065Z,10.32
2023-04-06T16:14:59.017Z,9.63
2023-04-06T16:17:25.911Z,9.63
2023-04-06T16:19:53.567Z,12.25
2023-04-06T16:22:21.234Z,10.63
2023-04-06T16:24:51.795Z,10.35
2023-04-06T16:27:18.573Z,9.02
2023-04-06T16:29:45.590Z,9.00
2023-04-06T16:32:14.061Z,9.30
2023-04-06T16:34:41.141Z,9.60
2023-04-06T16:37:08.234Z,9.00
2023-04-06T16:39:35.379Z,8.50
2023-04-06T16:42:02.970Z,9.05
2023-04-06T16:44:30.272Z,8.90
2023-04-06T16:46:57.113Z,9.10
2023-04-06T16:49:24.412Z,9.07
2023-04-06T16:51:51.949Z,9.75
2023-04-06T16:54:19.890Z,9.15
2023-04-06T16:56:46.861Z,8.93
2023-04-06T16:59:13.902Z,8.23
2023-04-06T17:01:41.201Z,9.00
2023-04-06T17:04:12.832Z,12.23
2023-04-06T17:06:40.825Z,10.63
2023-04-06T17:09:07.603Z,10.40
2023-04-06T17:11:46.120Z,8.48
2023-04-06T17:14:20.897Z,9.40
2023-04-06T17:16:47.961Z,8.60
2023-04-06T17:19:16.057Z,9.10
2023-04-06T17:21:43.208Z,9.02
2023-04-06T17:24:10.548Z,9.85
2023-04-06T17:26:37.742Z,10.10
2023-04-06T17:29:04.962Z,8.98
2023-04-06T17:31:33.775Z,9.07
2023-04-06T17:34:01.258Z,8.77
2023-04-06T17:36:29.787Z,10.10
2023-04-06T17:38:59.867Z,11.25
2023-04-06T17:41:26.822Z,11.57
2023-04-06T17:43:53.593Z,10.48
2023-04-06T17:46:21.909Z,9.85
2023-04-06T17:48:49.077Z,10.30
2023-04-06T17:51:19.016Z,8.95
2023-04-06T17:53:46.758Z,9.30
2023-04-06T17:56:13.734Z,9.05
2023-04-06T17:58:40.819Z,8.73
2023-04-06T18:01:15.816Z,8.88
2023-04-06T18:03:43.857Z,8.98
2023-04-06T18:06:15.805Z,12.40
2023-04-06T18:08:43.381Z,12.77
2023-04-06T18:11:21.989Z,12.38
2023-04-06T18:13:49.525Z,14.77
2023-04-06T18:16:17.953Z,12.77
2023-04-06T18:18:44.806Z,12.23
2023-04-06T18:21:13.546Z,12.40
2023-04-06T18:23:40.499Z,12.25
2023-04-06T18:26:07.681Z,11.23
2023-04-06T18:28:35.466Z,10.18
2023-04-06T18:31:02.651Z,10.38
2023-04-06T18:36:14.869Z,10.35
2023-04-06T18:38:48.058Z,11.23
2023-04-06T18:47:03.769Z,10.32
2023-04-06T18:49:33.529Z,10.40
2023-04-06T18:52:04.620Z,10.68
2023-04-06T18:54:31.463Z,10.30
2023-04-06T18:56:58.543Z,10.27
2023-04-06T18:59:30.739Z,10.90
2023-04-06T19:04:25.991Z,10.00
2023-04-06T19:06:53.043Z,11.52
2023-04-06T19:09:19.900Z,12.05
2023-04-06T19:11:46.831Z,11.82
2023-04-06T19:14:13.640Z,10.18
2023-04-06T19:19:26.537Z,10.15
2023-04-06T19:21:53.572Z,10.20
2023-04-06T19:24:22.686Z,10.10
2023-04-06T19:26:55.555Z,9.73
2023-04-06T19:29:24.081Z,10.55
2023-04-06T19:31:52.769Z,11.10
2023-04-06T19:34:20.448Z,12.27
2023-04-06T19:36:47.950Z,10.88
2023-04-06T19:39:18.649Z,11.27
2023-04-06T19:41:53.452Z,11.02
2023-04-06T19:44:20.917Z,11.02
2023-04-06T19:46:48.814Z,11.15
2023-04-06T19:49:17.026Z,10.85
2023-04-06T19:51:44.038Z,9.88
2023-04-06T19:54:11.480Z,10.55
2023-04-06T19:56:39.601Z,10.73
2023-04-06T19:59:08.207Z,10.98
2023-04-06T20:01:35.097Z,11.13
2023-04-06T20:04:02.165Z,12.52
2023-04-06T20:06:33.133Z,10.50
2023-04-06T20:08:59.879Z,10.48
2023-04-06T20:11:27.235Z,10.60
2023-04-06T20:13:55.626Z,9.90
2023-04-06T20:16:24.889Z,9.50
2023-04-06T20:18:54.006Z,10.93
2023-04-06T20:21:20.842Z,10.25
2023-04-06T20:23:50.153Z,11.25
2023-04-06T20:26:38.267Z,11.40
2023-04-06T20:29:05.674Z,10.73
2023-04-06T20:31:33.759Z,9.60
2023-04-06T20:34:03.244Z,10.70
2023-04-06T20:36:32.392Z,12.18
2023-04-06T20:38:59.739Z,11.05
2023-04-06T20:41:26.639Z,11.45
2023-04-06T20:44:05.486Z,10.65
2023-04-06T20:46:34.126Z,11.02
2023-04-06T20:49:01.106Z,10.85
2023-04-06T20:51:28.060Z,13.05
2023-04-06T20:53:55.605Z,11.55
2023-04-06T20:56:24.635Z,11.45
2023-04-06T20:58:51.469Z,11.23
2023-04-06T21:01:18.838Z,12.07
2023-04-06T21:03:46.409Z,12.15
2023-04-06T21:06:14.594Z,10.32
2023-04-06T21:08:42.244Z,10.52
2023-04-06T21:11:09.125Z,11.00
2023-04-06T21:13:36.284Z,12.32
2023-04-06T21:16:03.587Z,11.73
2023-04-06T21:18:31.953Z,12.18
2023-04-06T21:20:58.998Z,12.02
2023-04-06T21:23:26.522Z,11.35
2023-04-06T21:25:57.443Z,10.38
2023-04-06T21:28:25.774Z,10.88
2023-04-06T21:30:54.238Z,11.27
2023-04-06T21:33:21.686Z,11.05
2023-04-06T21:35:48.890Z,11.05
2023-04-06T21:38:17.388Z,11.10
2023-04-06T21:40:44.224Z,11.20
2023-04-06T21:43:12.335Z,11.93
2023-04-06T21:45:40.599Z,12.07
2023-04-06T21:48:09.968Z,11.23
2023-04-06T21:50:43.417Z,11.02
2023-04-06T21:53:13.022Z,13.68
2023-04-06T21:55:45.401Z,14.77
2023-04-06T21:58:13.493Z,12.85
2023-04-06T22:00:40.904Z,12.43
2023-04-06T22:03:08.313Z,11.13
2023-04-06T22:05:38.507Z,10.65
2023-04-06T22:08:05.876Z,10.63
2023-04-06T22:10:32.786Z,10.20
2023-04-06T22:13:00.029Z,11.05
2023-04-06T22:15:27.280Z,9.68
2023-04-06T22:17:54.277Z,10.90
2023-04-06T22:20:21.504Z,10.13
2023-04-06T22:22:48.722Z,10.45
2023-04-06T22:25:15.590Z,9.77
2023-04-06T22:27:42.342Z,10.35
2023-04-06T22:30:12.708Z,9.63
2023-04-06T22:32:39.842Z,11.68
2023-04-06T22:35:07.279Z,11.38
2023-04-06T22:37:34.126Z,10.65
2023-04-06T22:40:06.504Z,10.52
2023-04-06T22:42:33.516Z,9.43
2023-04-06T22:45:00.772Z,10.10
2023-04-06T22:47:27.653Z,10.73
2023-04-06T22:49:54.640Z,10.38
2023-04-06T22:52:21.515Z,8.57
2023-04-06T22:54:48.288Z,10.20
2023-04-06T22:57:15.150Z,10.65
2023-04-06T22:59:42.118Z,10.45
2023-04-06T23:02:09.149Z,11.02
2023-04-06T23:04:36.311Z,10.30
2023-04-06T23:07:03.221Z,10.55
2023-04-06T23:09:30.049Z,10.20
2023-04-06T23:11:56.902Z,10.60
2023-04-06T23:14:23.732Z,10.10
2023-04-06T23:16:50.576Z,10.40
2023-04-06T23:19:17.367Z,10.95
2023-04-06T23:21:44.294Z,10.52
2023-04-06T23:24:11.230Z,10.65
2023-04-06T23:26:37.961Z,10.13
2023-04-06T23:29:04.901Z,11.38
2023-04-06T23:31:31.979Z,10.57
2023-04-06T23:33:58.925Z,8.73
2023-04-06T23:36:27.169Z,10.80
2023-04-06T23:38:53.972Z,11.02
2023-04-06T23:41:20.787Z,10.90
2023-04-06T23:43:47.599Z,9.50
2023-04-06T23:46:18.000Z,11.18
2023-04-06T23:48:45.435Z,10.13
2023-04-06T23:51:12.383Z,10.35
2023-04-06T23:53:39.197Z,10.07
2023-04-06T23:56:06.204Z,11.10
2023-04-06T23:58:33.283Z,11.18
